Pagina principale
METAR-TAF:

METAR-TAF

Aeroporti :

Aeroporto di Venezia-Tessera

Venezia, Italia

latitudine: 45-30N, longitudine: 012-20E, altezza: 2 m

Osservazione

Il bollettino è stato emesso 30 minuti fa, alle 13:20 UTC
Vento 8 kt da sud-ovest
Temperature 22°C
Umidità 78%
Pressione 1017 hPa
Visibilità: 7000 m
Poco nuvoloso ad un'altezza di 2000 ft

METAR: LIPZ 271320Z 22008KT 7000 FEW020 22/18 Q1017 NOSIG

Ora: 15:50 (13:50 UTC)

Previsione

Il bollettino è stato emesso 2 ore e 50 minuti fa, alle 11:00 UTC
Previsione valida dal 27 alle 12 UTC al 28 alle 18 UTC
Vento 10 kt da sud-est
Visibilità: 6000 m
Nubi sparse ad un'altezza di 2000 ft
Evoluzione graduale
dal 27 alle 16 UTC al 27 alle 18 UTC
Vento 4 kt da direzioni variabili
Temporaneamente
dal 28 alle 00 UTC al 28 alle 08 UTC
Visibilità: 1500 m
foschia

TAF: LIPZ 271100Z 2712/2818 13010KT 6000 SCT020 BECMG 2716/2718 VRB04KT TEMPO 2800/2808 1500 BR

Osservazioni e previsioni meteorologiche di più di 4000 aeroporti (messaggi METAR e TAF).

Le stazioni disponibili sono rappresentate dai dischi gialli e rossi sulla carta.

Puntare il mouse per vedere il nome della stazione.

Clicca sopra per visualizzare le osservazioni e previsioni meteorologiche.

Per cambiare la mappa : fare clic sui pulsanti verdi con una croce nera per ingrandire, il pulsante verde con un trattino per diminuire, o sulla freccia verde per le mappe adiacenti.


METAR-TAF: